createdAt,value
2018-04-07T00:00:30.880Z,4.07
2018-04-07T00:02:56.994Z,3.90
2018-04-07T00:05:23.141Z,5.00
2018-04-07T00:07:49.988Z,6.03
2018-04-07T00:10:16.116Z,4.60
2018-04-07T00:12:42.261Z,4.17
2018-04-07T00:15:08.407Z,3.30
2018-04-07T00:17:35.282Z,3.57
2018-04-07T00:20:01.439Z,4.33
2018-04-07T00:22:27.597Z,3.30
2018-04-07T00:24:53.801Z,4.63
2018-04-07T00:27:19.956Z,4.10
2018-04-07T00:29:46.155Z,3.63
2018-04-07T00:32:13.052Z,3.57
2018-04-07T00:34:39.159Z,4.00
2018-04-07T00:37:05.997Z,3.77
2018-04-07T00:39:32.130Z,3.70
2018-04-07T00:41:58.246Z,4.70
2018-04-07T00:44:25.125Z,4.10
2018-04-07T00:46:51.240Z,4.07
2018-04-07T00:49:17.374Z,3.90
2018-04-07T00:51:43.479Z,4.27
2018-04-07T00:54:10.495Z,4.47
2018-04-07T00:56:36.587Z,4.20
2018-04-07T00:59:02.666Z,4.83
2018-04-07T01:01:28.760Z,4.60
2018-04-07T01:03:54.837Z,3.80
2018-04-07T01:06:24.246Z,4.10
2018-04-07T01:08:50.328Z,4.53
2018-04-07T01:11:17.166Z,4.73
2018-04-07T01:13:43.295Z,4.67
2018-04-07T01:16:09.380Z,4.33
2018-04-07T01:18:35.490Z,3.00
2018-04-07T01:21:01.565Z,4.87
2018-04-07T01:23:27.673Z,3.73
2018-04-07T01:25:54.592Z,4.00
2018-04-07T01:28:20.756Z,3.97
2018-04-07T01:30:47.618Z,3.60
2018-04-07T01:33:13.708Z,4.30
2018-04-07T01:35:39.806Z,4.30
2018-04-07T01:38:06.646Z,4.27
2018-04-07T01:40:33.503Z,3.33
2018-04-07T01:43:00.345Z,4.50
2018-04-07T01:45:26.446Z,3.47
2018-04-07T01:47:52.559Z,4.33
2018-04-07T01:50:19.384Z,3.97
2018-04-07T01:52:45.466Z,4.43
2018-04-07T01:55:11.579Z,3.90
2018-04-07T01:57:38.486Z,4.43
2018-04-07T02:00:04.611Z,3.87
2018-04-07T02:02:30.694Z,4.40
2018-04-07T02:04:56.804Z,3.87
2018-04-07T02:07:22.874Z,4.17
2018-04-07T02:09:48.976Z,4.00
2018-04-07T02:12:15.098Z,4.90
2018-04-07T02:14:41.220Z,4.20
2018-04-07T02:17:07.356Z,4.30
2018-04-07T02:19:33.449Z,5.60
2018-04-07T02:21:59.576Z,6.17
2018-04-07T02:24:25.718Z,5.17
2018-04-07T02:26:51.834Z,6.40
2018-04-07T02:29:17.963Z,4.80
2018-04-07T02:31:44.072Z,4.73
2018-04-07T02:34:10.178Z,5.30
2018-04-07T02:36:36.282Z,5.57
2018-04-07T02:39:02.399Z,4.70
2018-04-07T02:41:29.256Z,5.80
2018-04-07T02:43:55.381Z,4.20
2018-04-07T02:46:22.203Z,4.93
2018-04-07T02:48:48.351Z,5.57
2018-04-07T02:51:14.464Z,5.23
2018-04-07T02:53:40.527Z,5.20
2018-04-07T02:56:06.663Z,4.70
2018-04-07T02:58:32.773Z,5.33
2018-04-07T03:00:58.876Z,4.40
2018-04-07T03:03:24.978Z,5.47
2018-04-07T03:05:51.101Z,5.37
2018-04-07T03:08:17.158Z,4.53
2018-04-07T03:10:44.142Z,4.80
2018-04-07T03:13:10.246Z,5.30
2018-04-07T03:15:36.332Z,5.17
2018-04-07T03:18:02.444Z,5.50
2018-04-07T03:20:29.290Z,5.50
2018-04-07T03:22:55.409Z,5.50
2018-04-07T03:25:21.488Z,5.43
2018-04-07T03:27:48.331Z,5.90
2018-04-07T03:30:14.420Z,4.87
2018-04-07T03:32:40.491Z,5.70
2018-04-07T03:35:06.585Z,5.47
2018-04-07T03:37:32.676Z,5.30
2018-04-07T03:39:58.791Z,4.20
2018-04-07T03:42:24.914Z,4.43
2018-04-07T03:44:51.361Z,4.73
2018-04-07T03:47:17.493Z,5.10
2018-04-07T03:49:43.628Z,5.40
2018-04-07T03:52:09.733Z,4.93
2018-04-07T03:54:35.811Z,4.93
2018-04-07T03:57:01.938Z,5.20
2018-04-07T03:59:28.040Z,4.57
2018-04-07T04:01:54.882Z,5.10
2018-04-07T04:04:20.983Z,5.50
2018-04-07T04:06:47.084Z,4.20
2018-04-07T04:09:13.932Z,5.93
2018-04-07T04:11:40.015Z,5.30
2018-04-07T04:14:06.140Z,5.57
2018-04-07T04:16:32.257Z,4.90
2018-04-07T04:18:59.105Z,5.30
2018-04-07T04:21:25.939Z,4.90
2018-04-07T04:23:52.022Z,6.40
2018-04-07T04:26:18.151Z,4.80
2018-04-07T04:28:44.278Z,5.87
2018-04-07T04:31:10.375Z,5.03
2018-04-07T04:33:36.446Z,5.10
2018-04-07T04:36:03.294Z,5.23
2018-04-07T04:38:30.123Z,4.63
2018-04-07T04:40:56.236Z,5.77
2018-04-07T04:43:22.322Z,5.90
2018-04-07T04:45:49.173Z,4.90
2018-04-07T04:48:15.258Z,6.87
2018-04-07T04:50:41.358Z,5.73
2018-04-07T04:53:08.211Z,5.80
2018-04-07T04:55:34.293Z,5.57
2018-04-07T04:58:00.426Z,5.20
2018-04-07T05:00:26.531Z,6.10
2018-04-07T05:02:53.367Z,6.20
2018-04-07T05:05:19.496Z,5.63
2018-04-07T05:07:45.585Z,5.03
2018-04-07T05:10:11.691Z,5.20
2018-04-07T05:12:37.806Z,5.40
2018-04-07T05:15:03.943Z,5.70
2018-04-07T05:17:30.035Z,5.80
2018-04-07T05:19:56.172Z,5.53
2018-04-07T05:22:22.263Z,5.20
2018-04-07T05:24:48.342Z,5.40
2018-04-07T05:27:15.206Z,5.93
2018-04-07T05:29:42.074Z,5.80
2018-04-07T05:32:08.415Z,5.53
2018-04-07T05:34:34.572Z,6.57
2018-04-07T05:37:00.735Z,6.00
2018-04-07T05:39:26.831Z,5.80
2018-04-07T05:41:53.028Z,5.60
2018-04-07T05:44:19.110Z,6.77
2018-04-07T05:46:45.222Z,5.83
2018-04-07T05:49:12.114Z,7.20
2018-04-07T05:51:38.246Z,5.17
2018-04-07T05:54:04.329Z,5.63
2018-04-07T05:56:30.440Z,5.40
2018-04-07T05:58:56.539Z,5.43
2018-04-07T06:01:22.649Z,5.87
2018-04-07T06:03:48.763Z,5.07
2018-04-07T06:06:14.908Z,5.70
2018-04-07T06:08:41.027Z,6.20
2018-04-07T06:11:07.579Z,6.00
2018-04-07T06:13:33.715Z,6.47
2018-04-07T06:15:59.833Z,6.20
2018-04-07T06:18:25.967Z,5.70
2018-04-07T06:20:52.082Z,5.97
2018-04-07T06:23:18.971Z,5.77
2018-04-07T06:25:45.196Z,6.57
2018-04-07T06:28:11.354Z,6.13
2018-04-07T06:30:37.492Z,6.80
2018-04-07T06:33:03.630Z,6.17
2018-04-07T06:35:29.728Z,5.90
2018-04-07T06:37:56.575Z,6.67
2018-04-07T06:40:22.658Z,6.80
2018-04-07T06:42:48.764Z,6.73
2018-04-07T06:45:15.639Z,6.50
2018-04-07T06:47:41.766Z,5.70
2018-04-07T06:50:08.611Z,6.50
2018-04-07T06:52:35.478Z,6.93
2018-04-07T06:55:02.393Z,7.27
2018-04-07T06:57:28.447Z,6.33
2018-04-07T06:59:54.551Z,6.90
2018-04-07T07:02:20.639Z,5.50
2018-04-07T07:04:47.080Z,7.10
2018-04-07T07:07:13.926Z,7.27
2018-04-07T07:09:40.047Z,6.20
2018-04-07T07:12:06.136Z,6.90
2018-04-07T07:14:32.972Z,6.40
2018-04-07T07:16:59.095Z,6.93
2018-04-07T07:19:26.071Z,6.60
2018-04-07T07:21:52.334Z,6.93
2018-04-07T07:24:19.256Z,6.53
2018-04-07T07:26:45.370Z,7.00
2018-04-07T07:29:11.580Z,7.57
2018-04-07T07:31:37.753Z,6.83
2018-04-07T07:34:03.878Z,7.07
2018-04-07T07:36:31.081Z,7.00
2018-04-07T07:38:57.245Z,7.50
2018-04-07T07:41:30.515Z,7.37
2018-04-07T07:43:58.899Z,6.60
2018-04-07T07:46:27.694Z,6.80
2018-04-07T07:49:15.315Z,6.80
2018-04-07T07:51:41.721Z,7.00
2018-04-07T07:54:08.085Z,7.00
2018-04-07T07:56:34.194Z,7.87
2018-04-07T07:59:01.051Z,6.40
2018-04-07T08:01:27.215Z,7.50
2018-04-07T08:03:53.332Z,7.30
2018-04-07T08:06:20.162Z,6.43
2018-04-07T08:08:46.289Z,6.23
2018-04-07T08:11:12.411Z,7.07
2018-04-07T08:13:38.595Z,7.43
2018-04-07T08:16:04.740Z,8.07
2018-04-07T08:18:31.596Z,7.73
2018-04-07T08:20:57.700Z,6.77
2018-04-07T08:23:23.791Z,7.63
2018-04-07T08:25:50.053Z,8.30
2018-04-07T08:28:17.419Z,7.23
2018-04-07T08:30:49.342Z,8.10
2018-04-07T08:33:16.985Z,8.73
2018-04-07T08:35:43.123Z,8.80
2018-04-07T08:38:09.271Z,8.00
2018-04-07T08:40:36.434Z,7.37
2018-04-07T08:43:02.745Z,8.10
2018-04-07T08:45:28.966Z,8.27
2018-04-07T08:47:55.567Z,7.80
2018-04-07T08:50:21.939Z,8.20
2018-04-07T08:52:50.594Z,8.57
2018-04-07T08:58:07.830Z,8.13
2018-04-07T09:00:37.749Z,7.10
2018-04-07T09:03:03.943Z,7.30
2018-04-07T09:05:31.294Z,8.23
2018-04-07T09:07:58.344Z,7.97
2018-04-07T09:10:36.692Z,7.67
2018-04-07T09:13:07.425Z,8.67
2018-04-07T09:15:38.001Z,8.37
2018-04-07T09:18:07.215Z,8.50
2018-04-07T09:20:37.640Z,7.83
2018-04-07T09:23:07.851Z,8.93
2018-04-07T09:25:34.156Z,9.13
2018-04-07T09:28:00.772Z,9.27
2018-04-07T09:30:26.944Z,7.40
2018-04-07T09:32:54.667Z,7.90
2018-04-07T09:35:21.096Z,8.27
2018-04-07T09:37:47.338Z,9.47
2018-04-07T09:40:13.483Z,9.00
2018-04-07T09:42:39.659Z,9.40
2018-04-07T09:45:07.043Z,7.53
2018-04-07T09:47:38.639Z,8.47
2018-04-07T09:50:07.740Z,8.17
2018-04-07T09:52:33.864Z,7.83
2018-04-07T09:55:00.936Z,7.57
2018-04-07T09:57:38.084Z,9.83
2018-04-07T10:00:07.525Z,8.37
2018-04-07T10:02:35.305Z,9.27
2018-04-07T10:05:03.001Z,8.10
2018-04-07T10:07:38.413Z,7.90
2018-04-07T10:10:08.128Z,9.00
2018-04-07T10:12:34.330Z,6.20
2018-04-07T10:15:07.542Z,8.97
2018-04-07T10:17:37.231Z,8.17
2018-04-07T10:20:07.702Z,7.40
2018-04-07T10:22:38.953Z,7.40
2018-04-07T10:25:05.209Z,7.40
2018-04-07T10:27:36.594Z,7.73
2018-04-07T10:30:07.903Z,7.20
2018-04-07T10:32:34.835Z,7.43
2018-04-07T10:35:21.066Z,8.40
2018-04-07T10:37:47.482Z,7.97
2018-04-07T10:40:13.688Z,8.13
2018-04-07T10:42:43.289Z,8.63
2018-04-07T10:45:09.498Z,7.70
2018-04-07T10:47:45.511Z,8.53
2018-04-07T10:50:11.954Z,8.23
2018-04-07T10:52:52.211Z,8.17
2018-04-07T10:55:18.403Z,8.43
2018-04-07T10:57:51.743Z,8.20
2018-04-07T11:00:21.651Z,7.70
2018-04-07T11:02:47.832Z,7.40
2018-04-07T11:05:14.297Z,7.13
2018-04-07T11:07:40.448Z,9.30
2018-04-07T11:10:06.584Z,8.13
2018-04-07T11:12:32.694Z,7.90
2018-04-07T11:14:58.995Z,7.93
2018-04-07T11:17:25.988Z,7.80
2018-04-07T11:19:52.896Z,7.10
2018-04-07T11:22:19.099Z,8.10
2018-04-07T11:24:52.753Z,7.90
2018-04-07T11:27:22.194Z,8.53
2018-04-07T11:29:49.341Z,7.27
2018-04-07T11:32:20.894Z,8.27
2018-04-07T11:34:51.266Z,8.40
2018-04-07T11:37:22.431Z,8.43
2018-04-07T11:39:48.598Z,9.33
2018-04-07T11:42:15.220Z,7.67
2018-04-07T11:47:28.596Z,7.03
2018-04-07T11:49:55.717Z,7.10
2018-04-07T11:52:22.022Z,6.77
2018-04-07T11:54:48.279Z,6.43
2018-04-07T11:57:16.128Z,7.70
2018-04-07T11:59:42.389Z,8.23
2018-04-07T12:02:08.592Z,7.23
2018-04-07T12:04:35.143Z,7.00
2018-04-07T12:07:03.323Z,7.27
2018-04-07T12:09:30.354Z,7.17
2018-04-07T12:11:56.830Z,8.00
2018-04-07T12:14:23.045Z,7.30
2018-04-07T12:16:49.287Z,8.13
2018-04-07T12:19:15.482Z,7.33
2018-04-07T12:21:41.653Z,7.30
2018-04-07T12:24:10.158Z,7.50
2018-04-07T12:26:37.080Z,7.50
2018-04-07T12:29:03.322Z,7.40
2018-04-07T12:31:30.057Z,6.67
2018-04-07T12:33:56.473Z,7.77
2018-04-07T12:36:22.576Z,7.53
2018-04-07T12:38:48.800Z,7.27
2018-04-07T12:41:15.023Z,7.20
2018-04-07T12:43:42.540Z,7.87
2018-04-07T12:46:08.986Z,6.90
2018-04-07T12:48:36.413Z,6.43
2018-04-07T12:51:03.867Z,8.10
2018-04-07T12:53:30.257Z,7.40
2018-04-07T12:55:56.391Z,6.83
2018-04-07T12:58:22.999Z,6.93
2018-04-07T13:00:49.867Z,6.33
2018-04-07T13:03:16.781Z,6.93
2018-04-07T13:05:42.901Z,7.10
2018-04-07T13:10:43.325Z,5.60
2018-04-07T13:13:10.343Z,5.53
2018-04-07T13:15:36.505Z,5.50
2018-04-07T13:18:02.772Z,5.73
2018-04-07T13:20:28.968Z,5.83
2018-04-07T13:22:55.106Z,6.50
2018-04-07T13:25:21.304Z,7.40
2018-04-07T13:27:47.469Z,6.97
2018-04-07T13:30:13.672Z,5.87
2018-04-07T13:32:39.924Z,6.00
2018-04-07T13:35:06.023Z,5.70
2018-04-07T13:37:32.233Z,5.90
2018-04-07T13:39:58.455Z,6.70
2018-04-07T13:42:24.616Z,5.57
2018-04-07T13:44:50.935Z,5.60
2018-04-07T13:47:17.300Z,6.07
2018-04-07T13:49:43.507Z,5.20
2018-04-07T13:52:10.434Z,8.03
2018-04-07T13:54:37.335Z,5.93
2018-04-07T13:57:03.524Z,5.23
2018-04-07T13:59:29.799Z,7.10
2018-04-07T14:01:56.138Z,5.70
2018-04-07T14:04:22.330Z,11.17
2018-04-07T14:06:48.517Z,5.03
2018-04-07T14:09:14.796Z,4.87
2018-04-07T14:11:41.144Z,5.60
2018-04-07T14:14:07.324Z,4.87
2018-04-07T14:16:33.538Z,6.30
2018-04-07T14:18:59.859Z,4.60
2018-04-07T14:21:26.981Z,6.33
2018-04-07T14:23:53.998Z,5.60
2018-04-07T14:26:20.283Z,5.90
2018-04-07T14:28:47.157Z,4.83
2018-04-07T14:31:13.243Z,4.00
2018-04-07T14:33:39.399Z,5.50
2018-04-07T14:36:05.506Z,5.63
2018-04-07T14:38:31.656Z,6.53
2018-04-07T14:40:57.816Z,6.00
2018-04-07T14:43:24.543Z,5.53
2018-04-07T14:45:51.078Z,6.40
2018-04-07T14:48:17.508Z,5.90
2018-04-07T14:50:47.581Z,7.50
2018-04-07T14:53:13.697Z,7.27
2018-04-07T14:55:39.812Z,7.73
2018-04-07T14:58:05.932Z,8.33
2018-04-07T15:00:32.074Z,7.43
2018-04-07T15:02:58.186Z,7.43
2018-04-07T15:05:24.375Z,5.00
2018-04-07T15:07:50.482Z,4.90
2018-04-07T15:10:16.611Z,5.30
2018-04-07T15:12:42.691Z,5.37
2018-04-07T15:15:08.829Z,5.43
2018-04-07T15:17:34.981Z,4.73
2018-04-07T15:20:01.855Z,3.97
2018-04-07T15:22:28.730Z,5.20
2018-04-07T15:24:54.960Z,5.97
2018-04-07T15:27:21.322Z,4.37
2018-04-07T15:29:48.234Z,5.40
2018-04-07T15:32:14.362Z,4.33
2018-04-07T15:34:40.539Z,3.90
2018-04-07T15:37:06.664Z,4.30
2018-04-07T15:39:32.799Z,4.43
2018-04-07T15:41:58.916Z,3.97
2018-04-07T15:44:25.046Z,4.80
2018-04-07T15:46:51.186Z,4.60
2018-04-07T15:49:17.294Z,3.40
2018-04-07T15:51:43.378Z,3.97
2018-04-07T15:54:09.486Z,2.87
2018-04-07T15:56:35.614Z,2.60
2018-04-07T15:59:01.711Z,2.73
2018-04-07T16:01:27.866Z,3.10
2018-04-07T16:03:53.971Z,5.20
2018-04-07T16:06:20.241Z,7.80
2018-04-07T16:08:46.443Z,4.40
2018-04-07T16:11:12.546Z,11.27
2018-04-07T16:13:39.415Z,5.00
2018-04-07T16:16:06.329Z,7.00
2018-04-07T16:18:32.471Z,6.37
2018-04-07T16:20:58.638Z,4.07
2018-04-07T16:23:25.599Z,5.67
2018-04-07T16:25:52.441Z,4.20
2018-04-07T16:28:19.308Z,4.67
2018-04-07T16:30:45.461Z,3.60
2018-04-07T16:33:11.604Z,4.93
2018-04-07T16:35:37.719Z,3.67
2018-04-07T16:38:03.870Z,3.67
2018-04-07T16:40:30.716Z,5.63
2018-04-07T16:42:57.596Z,3.00
2018-04-07T16:45:24.282Z,4.40
2018-04-07T16:47:50.456Z,3.70
2018-04-07T16:50:16.582Z,4.10
2018-04-07T16:52:42.703Z,3.07
2018-04-07T16:55:08.796Z,4.40
2018-04-07T16:57:34.935Z,4.47
2018-04-07T17:00:01.123Z,3.43
2018-04-07T17:02:27.239Z,3.30
2018-04-07T17:04:54.063Z,3.40
2018-04-07T17:07:20.207Z,4.13
2018-04-07T17:09:46.351Z,5.10
2018-04-07T17:12:12.484Z,4.13
2018-04-07T17:14:38.554Z,4.90
2018-04-07T17:17:04.696Z,3.60
2018-04-07T17:19:31.154Z,4.23
2018-04-07T17:21:57.258Z,3.60
2018-04-07T17:24:24.125Z,3.73
2018-04-07T17:26:50.254Z,4.27
2018-04-07T17:29:16.378Z,4.47
2018-04-07T17:31:42.529Z,5.37
2018-04-07T17:34:08.655Z,4.50
2018-04-07T17:36:34.783Z,6.30
2018-04-07T17:39:00.870Z,6.40
2018-04-07T17:41:27.063Z,10.17
2018-04-07T17:43:53.922Z,7.73
2018-04-07T17:46:20.035Z,13.03
2018-04-07T17:48:46.122Z,7.30
2018-04-07T17:51:12.291Z,9.20
2018-04-07T17:53:38.469Z,7.03
2018-04-07T17:56:04.597Z,6.30
2018-04-07T17:58:31.506Z,6.97
2018-04-07T18:00:58.315Z,7.17
2018-04-07T18:03:25.178Z,6.30
2018-04-07T18:05:51.294Z,5.37
2018-04-07T18:08:17.413Z,8.30
2018-04-07T18:10:43.503Z,5.20
2018-04-07T18:13:09.749Z,3.93
2018-04-07T18:15:36.960Z,4.57
2018-04-07T18:18:03.210Z,4.07
2018-04-07T18:20:29.315Z,4.20
2018-04-07T18:22:55.426Z,3.97
2018-04-07T18:25:21.545Z,3.87
2018-04-07T18:27:47.936Z,4.00
2018-04-07T18:30:14.050Z,4.50
2018-04-07T18:32:40.183Z,4.90
2018-04-07T18:35:06.279Z,7.20
2018-04-07T18:37:32.416Z,14.00
2018-04-07T18:39:58.555Z,7.20
2018-04-07T18:42:24.773Z,4.10
2018-04-07T18:44:50.886Z,4.07
2018-04-07T18:47:17.033Z,5.10
2018-04-07T18:49:43.258Z,4.77
2018-04-07T18:52:09.350Z,5.20
2018-04-07T18:54:35.522Z,6.10
2018-04-07T18:57:01.659Z,6.10
2018-04-07T18:59:27.812Z,6.73
2018-04-07T19:01:53.960Z,6.00
2018-04-07T19:04:20.086Z,5.70
2018-04-07T19:06:46.227Z,6.17
2018-04-07T19:09:12.338Z,6.77
2018-04-07T19:11:38.529Z,6.10
2018-04-07T19:14:04.628Z,6.13
2018-04-07T19:16:30.732Z,6.00
2018-04-07T19:18:56.846Z,7.10
2018-04-07T19:21:22.954Z,8.33
2018-04-07T19:23:49.060Z,8.00
2018-04-07T19:26:15.452Z,8.70
2018-04-07T19:28:41.615Z,7.93
2018-04-07T19:31:07.727Z,9.80
2018-04-07T19:33:33.859Z,12.87
2018-04-07T19:36:00.008Z,9.17
2018-04-07T19:38:26.139Z,9.03
2018-04-07T19:40:52.238Z,9.80
2018-04-07T19:43:20.782Z,11.43
2018-04-07T19:45:46.902Z,10.80
2018-04-07T19:48:13.012Z,10.37
2018-04-07T19:50:39.913Z,12.37
2018-04-07T19:53:06.004Z,14.37
2018-04-07T19:55:32.090Z,11.90
2018-04-07T19:57:58.217Z,12.47
2018-04-07T20:00:24.306Z,12.60
2018-04-07T20:02:50.394Z,12.63
2018-04-07T20:05:16.490Z,13.03
2018-04-07T20:07:42.635Z,10.67
2018-04-07T20:10:08.731Z,11.90
2018-04-07T20:12:34.856Z,10.60
2018-04-07T20:15:01.000Z,10.23
2018-04-07T20:17:27.198Z,10.87
2018-04-07T20:19:53.639Z,10.83
2018-04-07T20:22:19.822Z,11.80
2018-04-07T20:24:45.951Z,10.73
2018-04-07T20:27:12.293Z,10.27
2018-04-07T20:29:38.641Z,10.20
2018-04-07T20:32:04.748Z,10.60
2018-04-07T20:34:31.218Z,10.80
2018-04-07T20:36:57.306Z,12.10
2018-04-07T20:39:23.387Z,11.97
2018-04-07T20:41:50.280Z,12.50
2018-04-07T20:44:28.535Z,13.00
2018-04-07T20:46:54.651Z,15.20
2018-04-07T20:49:20.790Z,21.77
2018-04-07T20:51:46.959Z,19.93
2018-04-07T20:54:13.401Z,24.80
2018-04-07T20:56:39.818Z,25.20
2018-04-07T20:59:05.970Z,30.13
2018-04-07T21:01:32.088Z,24.30
2018-04-07T21:03:58.239Z,17.90
2018-04-07T21:06:24.342Z,15.90
2018-04-07T21:08:50.444Z,15.40
2018-04-07T21:11:16.561Z,15.33
2018-04-07T21:13:42.779Z,16.53
2018-04-07T21:16:08.894Z,18.10
2018-04-07T21:18:35.027Z,18.57
2018-04-07T21:21:01.867Z,19.30
2018-04-07T21:23:27.955Z,19.60
2018-04-07T21:25:54.083Z,22.60
2018-04-07T21:28:20.175Z,20.90
2018-04-07T21:30:47.339Z,23.97
2018-04-07T21:33:13.451Z,22.70
2018-04-07T21:35:39.564Z,23.73
2018-04-07T21:38:05.743Z,22.10
2018-04-07T21:40:31.837Z,21.47
2018-04-07T21:42:57.951Z,23.87
2018-04-07T21:45:24.798Z,21.43
2018-04-07T21:47:50.919Z,21.57
2018-04-07T21:50:17.011Z,20.57
2018-04-07T21:52:43.140Z,20.13
2018-04-07T21:55:09.274Z,17.70
2018-04-07T21:57:35.407Z,17.60
2018-04-07T22:00:01.531Z,18.47
2018-04-07T22:02:27.619Z,22.60
2018-04-07T22:04:53.779Z,19.17
2018-04-07T22:07:19.864Z,18.70
2018-04-07T22:09:45.968Z,16.50
2018-04-07T22:12:12.079Z,20.23
2018-04-07T22:14:38.198Z,15.37
2018-04-07T22:17:04.346Z,15.83
2018-04-07T22:19:31.242Z,16.30
2018-04-07T22:21:57.367Z,14.80
2018-04-07T22:24:23.487Z,15.07
2018-04-07T22:26:49.595Z,15.67
2018-04-07T22:29:15.698Z,15.57
2018-04-07T22:31:41.828Z,16.20
2018-04-07T22:34:07.921Z,17.17
2018-04-07T22:36:34.030Z,17.80
2018-04-07T22:39:00.195Z,16.80
2018-04-07T22:41:26.375Z,14.03
2018-04-07T22:43:52.458Z,12.63
2018-04-07T22:46:18.586Z,12.90
2018-04-07T22:48:45.434Z,13.10
2018-04-07T22:51:11.544Z,12.50
2018-04-07T22:53:37.635Z,12.60
2018-04-07T22:56:03.788Z,13.40
2018-04-07T22:58:29.888Z,12.87
2018-04-07T23:00:56.738Z,11.60
2018-04-07T23:03:22.902Z,13.37
2018-04-07T23:05:50.167Z,11.67
2018-04-07T23:08:16.769Z,11.83
2018-04-07T23:10:42.927Z,12.50
2018-04-07T23:13:09.083Z,12.80
2018-04-07T23:15:35.947Z,12.40
2018-04-07T23:18:02.824Z,13.53
2018-04-07T23:20:28.931Z,12.30
2018-04-07T23:22:55.775Z,11.43
2018-04-07T23:25:21.925Z,11.47
2018-04-07T23:27:48.786Z,13.10
2018-04-07T23:30:15.648Z,11.50
2018-04-07T23:32:41.803Z,11.80
2018-04-07T23:35:07.912Z,11.90
2018-04-07T23:37:34.794Z,11.63
2018-04-07T23:40:00.982Z,11.27
2018-04-07T23:42:27.171Z,12.30
2018-04-07T23:44:53.313Z,11.17
2018-04-07T23:47:19.447Z,10.17
2018-04-07T23:49:45.556Z,11.00
2018-04-07T23:52:11.831Z,12.57
2018-04-07T23:54:37.974Z,11.40
2018-04-07T23:57:04.299Z,10.80
2018-04-07T23:59:30.419Z,11.03
